createdAt,value
2023-07-11T00:00:03.577Z,60.60
2023-07-11T00:01:04.260Z,60.70
2023-07-11T00:02:04.629Z,60.50
2023-07-11T00:03:06.835Z,60.80
2023-07-11T00:04:03.535Z,60.40
2023-07-11T00:05:06.684Z,61.30
2023-07-11T00:06:04.615Z,61.20
2023-07-11T00:07:06.928Z,60.90
2023-07-11T00:10:04.379Z,60.50
2023-07-11T00:11:06.923Z,61.40
2023-07-11T00:12:06.931Z,61.40
2023-07-11T00:14:03.669Z,61.00
2023-07-11T00:15:04.299Z,61.50
2023-07-11T00:16:04.803Z,61.60
2023-07-11T00:18:03.605Z,61.40
2023-07-11T00:19:06.817Z,61.40
2023-07-11T00:20:04.345Z,61.40
2023-07-11T00:21:04.105Z,61.70
2023-07-11T00:23:06.076Z,62.00
2023-07-11T00:24:06.113Z,61.80
2023-07-11T00:25:06.138Z,61.80
2023-07-11T00:27:04.405Z,62.20
2023-07-11T00:28:06.610Z,62.20
2023-07-11T00:29:04.200Z,62.60
2023-07-11T00:30:06.386Z,62.40
2023-07-11T00:32:04.249Z,62.70
2023-07-11T00:33:03.964Z,62.40
2023-07-11T00:34:06.903Z,62.00
2023-07-11T00:35:06.955Z,61.80
2023-07-11T00:37:04.149Z,62.60
2023-07-11T00:38:13.868Z,62.60
2023-07-11T00:40:04.246Z,62.40
2023-07-11T00:41:06.470Z,63.00
2023-07-11T00:42:06.492Z,63.60
2023-07-11T00:43:06.563Z,62.40
2023-07-11T00:46:08.579Z,62.90
2023-07-11T00:47:09.474Z,62.80
2023-07-11T00:49:06.369Z,62.70
2023-07-11T00:50:08.940Z,62.90
2023-07-11T00:52:06.959Z,62.70
2023-07-11T00:53:06.979Z,62.50
2023-07-11T00:55:04.171Z,62.70
2023-07-11T00:57:03.757Z,62.60
2023-07-11T00:58:13.571Z,62.90
2023-07-11T00:59:06.585Z,63.20
2023-07-11T01:00:06.583Z,63.20
2023-07-11T01:02:04.663Z,63.10
2023-07-11T01:03:10.945Z,63.70
2023-07-11T01:04:03.862Z,63.90
2023-07-11T01:05:03.489Z,63.70
2023-07-11T01:06:04.576Z,64.00
2023-07-11T01:07:03.468Z,63.90
2023-07-11T01:08:04.207Z,63.80
2023-07-11T01:09:03.955Z,63.70
2023-07-11T01:10:04.498Z,63.60
2023-07-11T01:12:06.239Z,63.80
2023-07-11T01:13:03.767Z,64.20
2023-07-11T01:14:04.656Z,64.30
2023-07-11T01:15:09.527Z,64.40
2023-07-11T01:16:04.948Z,64.40
2023-07-11T01:17:07.803Z,64.50
2023-07-11T01:18:06.434Z,64.50
2023-07-11T01:19:06.547Z,64.50
2023-07-11T01:21:04.025Z,64.30
2023-07-11T01:22:03.676Z,64.10
2023-07-11T01:23:06.830Z,64.50
2023-07-11T01:24:04.372Z,64.60
2023-07-11T01:26:04.946Z,64.40
2023-07-11T01:27:06.408Z,65.20
2023-07-11T01:29:04.380Z,64.90
2023-07-11T01:30:06.519Z,64.80
2023-07-11T01:32:03.701Z,65.00
2023-07-11T01:33:04.486Z,65.20
2023-07-11T01:34:06.727Z,65.30
2023-07-11T01:36:04.861Z,65.40
2023-07-11T01:37:06.278Z,65.90
2023-07-11T01:38:11.387Z,65.20
2023-07-11T01:40:04.176Z,65.60
2023-07-11T01:41:06.375Z,65.00
2023-07-11T01:43:04.365Z,64.60
2023-07-11T01:44:03.952Z,64.90
2023-07-11T01:45:03.585Z,64.90
2023-07-11T01:46:04.832Z,65.40
2023-07-11T01:47:03.640Z,65.40
2023-07-11T01:48:04.398Z,65.40
2023-07-11T01:49:04.388Z,65.60
2023-07-11T01:50:03.970Z,65.70
2023-07-11T01:51:06.190Z,65.70
2023-07-11T01:52:03.666Z,65.70
2023-07-11T01:53:04.288Z,66.10
2023-07-11T01:54:03.995Z,65.70
2023-07-11T01:56:03.944Z,66.20
2023-07-11T01:57:06.214Z,66.30
2023-07-11T01:59:07.009Z,66.00
2023-07-11T02:01:04.261Z,66.30
2023-07-11T02:02:04.290Z,67.00
2023-07-11T02:03:06.878Z,66.70
2023-07-11T02:04:05.985Z,66.90
2023-07-11T02:05:06.016Z,67.00
2023-07-11T02:07:07.059Z,66.60
2023-07-11T02:08:06.245Z,66.70
2023-07-11T02:10:03.525Z,67.10
2023-07-11T02:11:04.340Z,67.10
2023-07-11T02:12:09.120Z,66.80
2023-07-11T02:13:04.405Z,66.90
2023-07-11T02:14:06.650Z,67.30
2023-07-11T02:16:04.531Z,67.60
2023-07-11T02:17:07.016Z,67.40
2023-07-11T02:18:06.240Z,67.30
2023-07-11T02:19:06.306Z,67.70
2023-07-11T02:20:03.864Z,67.70
2023-07-11T02:21:06.029Z,67.70
2023-07-11T02:23:06.703Z,67.90
2023-07-11T02:24:04.262Z,67.90
2023-07-11T02:25:04.014Z,68.00
2023-07-11T02:26:06.609Z,67.50
2023-07-11T02:27:04.298Z,67.30
2023-07-11T02:29:08.755Z,68.10
2023-07-11T02:30:04.276Z,68.20
2023-07-11T02:32:06.064Z,67.80
2023-07-11T02:34:09.400Z,67.60
2023-07-11T02:35:06.415Z,67.90
2023-07-11T02:37:03.882Z,67.90
2023-07-11T02:38:03.569Z,68.00
2023-07-11T02:39:04.314Z,68.30
2023-07-11T02:40:04.051Z,68.30
2023-07-11T02:41:06.259Z,68.10
2023-07-11T02:42:03.753Z,68.30
2023-07-11T02:43:07.005Z,68.50
2023-07-11T02:45:14.362Z,68.30
2023-07-11T02:46:04.076Z,68.30
2023-07-11T02:47:03.888Z,68.70
2023-07-11T02:48:03.509Z,68.40
2023-07-11T02:49:05.630Z,68.10
2023-07-11T02:51:03.978Z,68.40
2023-07-11T02:52:06.167Z,68.80
2023-07-11T02:53:06.215Z,69.20
2023-07-11T02:54:06.208Z,68.90
2023-07-11T02:55:06.253Z,68.90
2023-07-11T02:57:03.788Z,68.60
2023-07-11T02:58:03.489Z,68.40
2023-07-11T02:59:04.159Z,69.10
2023-07-11T03:00:06.421Z,68.50
2023-07-11T03:01:08.097Z,68.60
2023-07-11T03:03:06.968Z,68.40
2023-07-11T03:04:08.709Z,68.80
2023-07-11T03:06:07.153Z,68.40
2023-07-11T03:07:08.944Z,68.90
2023-07-11T03:08:03.522Z,69.10
2023-07-11T03:09:04.128Z,68.90
2023-07-11T03:10:08.835Z,68.90
2023-07-11T03:11:04.332Z,69.00
2023-07-11T03:12:06.439Z,68.90
2023-07-11T03:13:03.941Z,68.80
2023-07-11T03:14:03.713Z,68.80
2023-07-11T03:15:05.319Z,68.90
2023-07-11T03:16:04.997Z,69.20
2023-07-11T03:17:03.824Z,69.80
2023-07-11T03:18:03.633Z,70.00
2023-07-11T03:19:04.356Z,71.80
2023-07-11T03:20:04.025Z,71.30
2023-07-11T03:21:03.739Z,68.00
2023-07-11T03:22:04.512Z,67.90
2023-07-11T03:23:06.690Z,67.70
2023-07-11T03:25:06.447Z,68.70
2023-07-11T03:27:06.248Z,67.60
2023-07-11T03:28:06.293Z,68.20
2023-07-11T03:29:06.536Z,68.30
2023-07-11T03:30:04.043Z,68.10
2023-07-11T03:31:06.299Z,68.50
2023-07-11T03:32:03.974Z,68.40
2023-07-11T03:33:03.762Z,68.40
2023-07-11T03:34:18.619Z,68.40
2023-07-11T03:36:04.704Z,68.40
2023-07-11T03:38:05.969Z,68.40
2023-07-11T03:40:06.648Z,68.50
2023-07-11T03:41:04.126Z,68.60
2023-07-11T03:42:03.737Z,68.80
2023-07-11T03:43:04.440Z,69.20
2023-07-11T03:44:06.717Z,68.80
2023-07-11T03:46:04.013Z,68.80
2023-07-11T03:48:04.470Z,68.80
2023-07-11T03:49:04.177Z,69.40
2023-07-11T03:50:03.767Z,69.30
2023-07-11T03:51:04.406Z,69.70
2023-07-11T03:52:03.984Z,69.80
2023-07-11T03:53:03.663Z,69.50
2023-07-11T03:54:04.390Z,69.60
2023-07-11T03:55:06.566Z,69.50
2023-07-11T03:57:03.938Z,68.80
2023-07-11T03:58:06.160Z,69.40
2023-07-11T04:00:06.909Z,69.80
2023-07-11T04:01:07.013Z,69.80
2023-07-11T04:03:07.074Z,69.10
2023-07-11T04:05:04.454Z,68.90
2023-07-11T04:06:08.224Z,68.80
2023-07-11T04:08:04.309Z,68.40
2023-07-11T04:09:06.512Z,68.60
2023-07-11T04:10:06.531Z,68.30
2023-07-11T04:11:06.589Z,67.80
2023-07-11T04:12:06.664Z,67.50
2023-07-11T04:13:06.668Z,67.20
2023-07-11T04:14:06.860Z,66.80
2023-07-11T04:15:06.091Z,67.00
2023-07-11T04:16:06.709Z,66.40
2023-07-11T04:18:04.519Z,66.50
2023-07-11T04:20:04.339Z,66.00
2023-07-11T04:21:04.312Z,65.50
2023-07-11T04:22:03.869Z,66.00
2023-07-11T04:23:06.062Z,65.30
2023-07-11T04:24:03.579Z,65.20
2023-07-11T04:25:04.517Z,64.80
2023-07-11T04:27:06.793Z,63.60
2023-07-11T04:28:06.939Z,63.80
2023-07-11T04:30:04.028Z,63.40
2023-07-11T04:31:03.649Z,63.50
2023-07-11T04:32:04.418Z,63.50
2023-07-11T04:33:06.570Z,63.10
2023-07-11T04:34:04.123Z,62.70
2023-07-11T04:35:03.874Z,62.80
2023-07-11T04:36:06.812Z,62.40
2023-07-11T04:38:04.225Z,62.20
2023-07-11T04:39:04.003Z,61.80
2023-07-11T04:40:04.308Z,61.70
2023-07-11T04:41:03.961Z,61.30
2023-07-11T04:42:03.623Z,61.10
2023-07-11T04:43:06.834Z,60.70
2023-07-11T04:44:04.454Z,60.80
2023-07-11T04:45:04.102Z,60.50
2023-07-11T04:46:07.333Z,60.00
2023-07-11T04:47:06.639Z,59.90
2023-07-11T04:49:08.948Z,59.30
2023-07-11T04:50:09.515Z,59.20
2023-07-11T04:51:04.060Z,59.30
2023-07-11T04:52:09.566Z,59.20
2023-07-11T04:55:04.410Z,58.50
2023-07-11T04:56:04.177Z,58.60
2023-07-11T04:57:04.045Z,58.20
2023-07-11T04:59:06.989Z,57.90
2023-07-11T05:00:06.085Z,58.00
2023-07-11T05:02:04.509Z,58.00
2023-07-11T05:03:04.164Z,57.70
2023-07-11T05:05:06.196Z,57.10
2023-07-11T05:07:03.678Z,57.20
2023-07-11T05:08:09.405Z,56.60
2023-07-11T05:09:06.486Z,56.70
2023-07-11T05:10:06.448Z,55.60
2023-07-11T05:11:06.428Z,54.40
2023-07-11T05:12:03.968Z,54.20
2023-07-11T05:13:06.144Z,54.10
2023-07-11T05:14:03.761Z,54.00
2023-07-11T05:15:04.448Z,53.60
2023-07-11T05:16:04.626Z,53.80
2023-07-11T05:17:04.734Z,53.90
2023-07-11T05:18:07.096Z,53.70
2023-07-11T05:19:03.627Z,53.60
2023-07-11T05:20:04.280Z,53.90
2023-07-11T05:21:03.855Z,54.00
2023-07-11T05:23:04.212Z,53.90
2023-07-11T05:24:09.011Z,53.40
2023-07-11T05:26:04.453Z,53.80
2023-07-11T05:27:04.401Z,53.30
2023-07-11T05:28:06.550Z,53.30
2023-07-11T05:30:06.189Z,52.60
2023-07-11T05:31:06.268Z,52.40
2023-07-11T05:33:03.899Z,52.20
2023-07-11T05:34:06.170Z,51.60
2023-07-11T05:35:03.620Z,51.80
2023-07-11T05:36:04.772Z,51.50
2023-07-11T05:37:11.195Z,51.20
2023-07-11T05:38:03.652Z,51.00
2023-07-11T05:39:04.383Z,50.90
2023-07-11T05:40:06.511Z,49.60
2023-07-11T05:42:08.668Z,49.70
2023-07-11T05:43:04.195Z,49.50
2023-07-11T05:44:06.310Z,50.00
2023-07-11T05:46:05.146Z,50.00
2023-07-11T05:47:04.158Z,50.10
2023-07-11T05:49:06.103Z,50.20
2023-07-11T05:50:03.692Z,50.10
2023-07-11T05:51:04.413Z,50.00
2023-07-11T05:52:04.136Z,48.90
2023-07-11T05:53:03.776Z,49.60
2023-07-11T05:54:04.405Z,49.50
2023-07-11T05:55:04.304Z,49.30
2023-07-11T05:56:04.107Z,49.10
2023-07-11T05:57:06.374Z,49.00
2023-07-11T05:59:03.603Z,48.50
2023-07-11T06:00:04.555Z,48.80
2023-07-11T06:01:06.849Z,49.00
2023-07-11T06:03:03.878Z,48.40
2023-07-11T06:04:06.324Z,48.10
2023-07-11T06:05:03.914Z,48.10
2023-07-11T06:06:09.298Z,47.80
2023-07-11T06:07:04.017Z,48.10
2023-07-11T06:09:04.228Z,48.10
2023-07-11T06:10:06.343Z,47.90
2023-07-11T06:12:03.702Z,48.10
2023-07-11T06:13:06.882Z,48.10
2023-07-11T06:14:07.063Z,47.10
2023-07-11T06:15:06.192Z,48.20
2023-07-11T06:17:04.562Z,48.10
2023-07-11T06:18:06.919Z,47.40
2023-07-11T06:19:09.496Z,48.50
2023-07-11T06:20:06.495Z,48.60
2023-07-11T06:22:03.607Z,48.50
2023-07-11T06:23:06.865Z,48.60
2023-07-11T06:25:04.324Z,50.20
2023-07-11T06:26:09.595Z,51.00
2023-07-11T06:28:06.880Z,50.50
2023-07-11T06:29:04.416Z,50.40
2023-07-11T06:30:06.561Z,50.00
2023-07-11T06:31:08.271Z,49.90
2023-07-11T06:32:04.298Z,50.30
2023-07-11T06:33:04.103Z,49.80
2023-07-11T06:34:03.708Z,50.90
2023-07-11T06:35:06.838Z,51.30
2023-07-11T06:37:06.673Z,50.90
2023-07-11T06:38:04.162Z,50.50
2023-07-11T06:39:06.413Z,51.30
2023-07-11T06:40:03.877Z,50.90
2023-07-11T06:41:07.722Z,50.80
2023-07-11T06:42:04.557Z,50.40
2023-07-11T06:43:04.178Z,50.40
2023-07-11T06:44:04.002Z,50.70
2023-07-11T06:46:04.600Z,50.40
2023-07-11T06:48:11.613Z,42.00
2023-07-11T06:51:07.606Z,43.10
2023-07-11T06:53:03.745Z,43.90
2023-07-11T06:54:04.502Z,43.10
2023-07-11T06:55:06.634Z,42.80
2023-07-11T06:56:04.385Z,43.20
2023-07-11T06:57:04.062Z,42.40
2023-07-11T06:58:06.168Z,41.30
2023-07-11T06:59:06.231Z,41.30
2023-07-11T07:00:06.520Z,41.10
2023-07-11T07:01:35.155Z,41.00
2023-07-11T07:03:06.699Z,40.20
2023-07-11T07:04:06.806Z,39.10
2023-07-11T07:06:03.667Z,39.10
2023-07-11T07:07:04.379Z,40.90
2023-07-11T07:08:15.624Z,41.40
2023-07-11T07:10:04.463Z,40.30
2023-07-11T07:11:04.204Z,43.00
2023-07-11T07:12:04.173Z,39.80
2023-07-11T07:13:03.874Z,40.30
2023-07-11T07:14:07.068Z,40.90
2023-07-11T07:16:03.744Z,40.20
2023-07-11T07:17:04.546Z,40.40
2023-07-11T07:18:06.781Z,40.40
2023-07-11T07:19:16.965Z,39.50
2023-07-11T07:22:04.309Z,38.90
2023-07-11T07:23:03.875Z,38.20
2023-07-11T07:24:03.539Z,38.40
2023-07-11T07:25:24.539Z,38.30
2023-07-11T07:27:23.961Z,39.70
2023-07-11T07:29:09.460Z,39.10
2023-07-11T07:30:03.616Z,39.20
2023-07-11T07:31:07.358Z,39.60
2023-07-11T07:32:03.880Z,39.50
2023-07-11T07:33:03.624Z,39.60
2023-07-11T07:34:04.452Z,40.50
2023-07-11T07:35:06.665Z,39.80
2023-07-11T07:36:03.490Z,40.00
2023-07-11T07:37:04.230Z,39.30
2023-07-11T07:38:06.469Z,39.20
2023-07-11T07:39:03.989Z,38.70
2023-07-11T07:40:03.571Z,37.90
2023-07-11T07:41:07.817Z,38.30
2023-07-11T07:42:06.969Z,38.60
2023-07-11T07:43:05.995Z,39.60
2023-07-11T07:44:08.603Z,39.80
2023-07-11T07:46:06.760Z,38.70
2023-07-11T07:48:04.380Z,38.40
2023-07-11T07:49:04.034Z,38.60
2023-07-11T07:50:08.788Z,38.70
2023-07-11T07:52:03.719Z,38.50
2023-07-11T07:53:09.443Z,38.70
2023-07-11T07:54:06.508Z,39.40
2023-07-11T07:55:04.125Z,39.40
2023-07-11T07:56:06.606Z,39.70
2023-07-11T07:58:04.040Z,39.60
2023-07-11T07:59:06.236Z,39.20
2023-07-11T08:01:07.694Z,39.50
2023-07-11T08:03:06.426Z,39.60
2023-07-11T08:04:06.892Z,40.80
2023-07-11T08:05:03.587Z,40.10
2023-07-11T08:07:06.426Z,39.10
2023-07-11T08:08:06.626Z,38.60
2023-07-11T08:09:06.840Z,38.60
2023-07-11T08:11:04.502Z,38.70
2023-07-11T08:12:06.955Z,38.00
2023-07-11T08:13:04.477Z,38.10
2023-07-11T08:14:04.490Z,38.30
2023-07-11T08:15:06.706Z,38.10
2023-07-11T08:16:30.270Z,37.90
2023-07-11T08:17:04.322Z,38.10
2023-07-11T08:18:04.115Z,39.00
2023-07-11T08:19:08.282Z,37.90
2023-07-11T08:21:03.555Z,38.00
2023-07-11T08:22:06.905Z,38.00
2023-07-11T08:23:04.429Z,38.60
2023-07-11T08:24:04.142Z,38.20
2023-07-11T08:25:06.419Z,38.10
2023-07-11T08:26:06.682Z,37.80
2023-07-11T08:27:04.255Z,37.90
2023-07-11T08:28:11.508Z,36.10
2023-07-11T08:29:24.607Z,36.60
2023-07-11T08:31:10.164Z,36.70
2023-07-11T08:33:06.799Z,36.70
2023-07-11T08:35:04.071Z,38.00
2023-07-11T08:36:06.374Z,37.50
2023-07-11T08:38:05.310Z,37.20
2023-07-11T08:39:06.573Z,36.20
2023-07-11T08:40:06.685Z,36.80
2023-07-11T08:42:03.999Z,37.60
2023-07-11T08:43:06.223Z,37.50
2023-07-11T08:44:03.736Z,37.30
2023-07-11T08:45:06.034Z,37.70
2023-07-11T08:46:12.193Z,37.90
2023-07-11T08:47:04.481Z,37.30
2023-07-11T08:48:05.449Z,36.70
2023-07-11T08:50:06.142Z,33.20
2023-07-11T08:51:03.630Z,34.10
2023-07-11T08:52:04.306Z,34.80
2023-07-11T08:53:03.864Z,33.40
2023-07-11T08:54:03.571Z,33.10
2023-07-11T08:55:04.281Z,33.30
2023-07-11T08:56:07.065Z,34.20
2023-07-11T08:58:06.833Z,34.00
2023-07-11T08:59:04.489Z,33.90
2023-07-11T09:00:06.743Z,34.70
2023-07-11T09:02:06.414Z,34.30
2023-07-11T09:04:04.132Z,34.90
2023-07-11T09:05:03.768Z,35.50
2023-07-11T09:06:07.578Z,35.80
2023-07-11T09:08:06.476Z,35.70
2023-07-11T09:09:06.629Z,36.00
2023-07-11T09:11:06.393Z,35.30
2023-07-11T09:13:15.642Z,34.90
2023-07-11T09:14:04.431Z,37.30
2023-07-11T09:15:04.081Z,35.00
2023-07-11T09:16:07.222Z,34.10
2023-07-11T09:17:06.604Z,33.50
2023-07-11T09:18:04.162Z,33.40
2023-07-11T09:19:04.097Z,32.90
2023-07-11T09:20:06.202Z,33.00
2023-07-11T09:22:04.475Z,32.90
2023-07-11T09:23:04.307Z,34.20
2023-07-11T09:24:22.756Z,34.20
2023-07-11T09:25:08.696Z,34.10
2023-07-11T09:27:04.324Z,33.80
2023-07-11T09:28:03.922Z,34.00
2023-07-11T09:29:03.563Z,34.40
2023-07-11T09:30:04.309Z,34.00
2023-07-11T09:32:04.016Z,33.40
2023-07-11T09:33:04.183Z,34.00
2023-07-11T09:34:09.086Z,33.20
2023-07-11T09:36:06.670Z,34.60
2023-07-11T09:39:03.546Z,34.80
2023-07-11T09:40:07.721Z,34.70
2023-07-11T09:42:04.065Z,34.40
2023-07-11T09:43:03.836Z,34.70
2023-07-11T09:44:03.668Z,34.50
2023-07-11T09:45:07.214Z,34.70
2023-07-11T09:46:09.512Z,34.60
2023-07-11T09:48:09.526Z,34.40
2023-07-11T09:49:04.112Z,34.80
2023-07-11T09:50:06.283Z,35.80
2023-07-11T09:51:13.431Z,35.90
2023-07-11T09:52:03.986Z,36.20
2023-07-11T09:53:03.666Z,35.30
2023-07-11T09:54:07.894Z,35.40
2023-07-11T09:55:09.189Z,34.50
2023-07-11T09:56:14.085Z,35.30
2023-07-11T09:58:03.596Z,35.90
2023-07-11T09:59:04.319Z,36.10
2023-07-11T10:00:22.918Z,38.00
2023-07-11T10:01:03.817Z,46.00
2023-07-11T10:02:04.515Z,46.10
2023-07-11T10:03:04.163Z,45.00
2023-07-11T10:04:06.709Z,44.60
2023-07-11T10:06:04.696Z,34.80
2023-07-11T10:07:04.483Z,34.50
2023-07-11T10:08:06.754Z,35.90
2023-07-11T10:09:09.300Z,34.70
2023-07-11T10:10:06.211Z,35.70
2023-07-11T10:12:04.233Z,35.60
2023-07-11T10:13:26.078Z,34.80
2023-07-11T10:14:04.059Z,35.50
2023-07-11T10:15:03.769Z,33.60
2023-07-11T10:16:04.775Z,33.90
2023-07-11T10:18:04.350Z,41.00
2023-07-11T10:19:03.908Z,38.00
2023-07-11T10:20:19.241Z,33.10
2023-07-11T10:22:06.524Z,31.70
2023-07-11T10:23:06.539Z,30.70
2023-07-11T10:24:06.568Z,31.70
2023-07-11T10:25:04.142Z,30.80
2023-07-11T10:26:07.274Z,31.70
2023-07-11T10:28:06.158Z,30.10
2023-07-11T10:29:23.977Z,29.80
2023-07-11T10:31:03.792Z,29.50
2023-07-11T10:32:04.503Z,28.90
2023-07-11T10:35:06.876Z,28.20
2023-07-11T10:37:06.760Z,26.90
2023-07-11T10:38:06.754Z,26.50
2023-07-11T10:39:06.811Z,26.50
2023-07-11T10:41:06.431Z,27.40
2023-07-11T10:42:11.470Z,27.60
2023-07-11T10:44:06.083Z,27.10
2023-07-11T10:45:06.149Z,26.90
2023-07-11T10:47:07.080Z,26.60
2023-07-11T10:48:06.256Z,26.50
2023-07-11T10:49:03.720Z,26.60
2023-07-11T10:50:04.366Z,26.10
2023-07-11T10:51:06.601Z,23.90
2023-07-11T10:53:03.964Z,23.50
2023-07-11T10:54:03.657Z,24.20
2023-07-11T10:55:04.327Z,26.00
2023-07-11T10:56:04.155Z,25.90
2023-07-11T10:57:06.419Z,26.20
2023-07-11T10:58:03.925Z,26.40
2023-07-11T10:59:06.030Z,25.50
2023-07-11T11:01:04.362Z,26.00
2023-07-11T11:03:06.757Z,25.60
2023-07-11T11:05:04.282Z,25.60
2023-07-11T11:06:04.490Z,24.20
2023-07-11T11:07:03.669Z,23.70
2023-07-11T11:08:06.901Z,24.20
2023-07-11T11:10:06.682Z,23.50
2023-07-11T11:12:04.024Z,23.70
2023-07-11T11:13:08.714Z,24.60
2023-07-11T11:15:04.067Z,24.40
2023-07-11T11:16:03.717Z,24.70
2023-07-11T11:17:06.846Z,26.60
2023-07-11T11:19:07.106Z,25.70
2023-07-11T11:20:06.381Z,25.70
2023-07-11T11:21:21.993Z,26.30
2023-07-11T11:23:04.234Z,24.40
2023-07-11T11:24:03.844Z,24.10
2023-07-11T11:25:06.106Z,24.70
2023-07-11T11:26:06.606Z,26.00
2023-07-11T11:27:04.338Z,25.30
2023-07-11T11:28:06.462Z,26.70
2023-07-11T11:30:08.843Z,25.40
2023-07-11T11:32:08.708Z,25.00
2023-07-11T11:33:11.914Z,26.00
2023-07-11T11:34:04.502Z,25.60
2023-07-11T11:35:17.261Z,25.70
2023-07-11T11:37:06.062Z,25.40
2023-07-11T11:39:06.779Z,26.40
2023-07-11T11:40:09.303Z,25.70
2023-07-11T11:41:07.257Z,26.40
2023-07-11T11:42:03.928Z,26.80
2023-07-11T11:43:03.611Z,26.20
2023-07-11T11:49:06.603Z,26.10
2023-07-11T11:49:36.366Z,24.70
2023-07-11T11:51:15.274Z,25.80
2023-07-11T11:53:03.667Z,25.30
2023-07-11T11:54:06.794Z,25.60
2023-07-11T11:56:24.478Z,26.10
2023-07-11T11:58:09.495Z,25.20
2023-07-11T12:00:06.206Z,25.20
2023-07-11T12:02:04.355Z,25.90
2023-07-11T12:04:03.737Z,27.70
2023-07-11T12:05:04.464Z,27.70
2023-07-11T12:06:07.055Z,35.40
2023-07-11T12:07:03.701Z,35.60
2023-07-11T12:08:04.072Z,36.10
2023-07-11T12:09:03.818Z,35.90
2023-07-11T12:10:03.972Z,36.70
2023-07-11T12:11:04.931Z,36.50
2023-07-11T12:12:06.238Z,36.50
2023-07-11T12:13:03.758Z,35.70
2023-07-11T12:14:09.468Z,35.70
2023-07-11T12:15:03.882Z,34.70
2023-07-11T12:16:07.048Z,35.80
2023-07-11T12:18:03.756Z,34.30
2023-07-11T12:19:06.078Z,35.70
2023-07-11T12:21:06.933Z,36.20
2023-07-11T12:22:07.091Z,36.30
2023-07-11T12:24:41.147Z,36.50
2023-07-11T12:26:04.003Z,34.60
2023-07-11T12:27:03.746Z,35.10
2023-07-11T12:28:04.464Z,34.60
2023-07-11T12:29:04.227Z,34.20
2023-07-11T12:30:03.954Z,35.40
2023-07-11T12:31:03.584Z,35.80
2023-07-11T12:32:14.558Z,35.00
2023-07-11T12:33:03.859Z,34.20
2023-07-11T12:34:06.533Z,34.40
2023-07-11T12:36:03.519Z,34.00
2023-07-11T12:37:04.192Z,33.50
2023-07-11T12:38:03.993Z,34.00
2023-07-11T12:39:03.680Z,34.60
2023-07-11T12:40:04.052Z,34.60
2023-07-11T12:42:03.677Z,34.60
2023-07-11T12:43:11.826Z,34.20
2023-07-11T12:45:06.991Z,34.40
2023-07-11T12:47:04.207Z,34.50
2023-07-11T12:48:06.277Z,34.00
2023-07-11T12:49:03.816Z,34.10
2023-07-11T12:50:09.606Z,34.90
2023-07-11T12:51:09.672Z,35.10
2023-07-11T12:54:09.082Z,25.20
2023-07-11T12:55:14.200Z,24.60
2023-07-11T12:56:03.703Z,25.00
2023-07-11T12:57:04.355Z,24.70
2023-07-11T12:58:06.615Z,25.00
2023-07-11T13:01:04.604Z,24.00
2023-07-11T13:02:07.150Z,24.20
2023-07-11T13:03:06.485Z,24.70
2023-07-11T13:04:03.971Z,24.60
2023-07-11T13:05:04.228Z,24.60
2023-07-11T13:06:22.671Z,25.30
2023-07-11T13:07:06.046Z,35.90
2023-07-11T13:08:11.191Z,27.30
2023-07-11T13:10:04.518Z,26.90
2023-07-11T13:11:07.650Z,29.80
2023-07-11T13:12:04.363Z,26.40
2023-07-11T13:13:03.846Z,26.40
2023-07-11T13:14:03.995Z,28.40
2023-07-11T13:15:06.788Z,35.20
2023-07-11T13:16:06.948Z,35.00
2023-07-11T13:17:07.058Z,35.00
2023-07-11T13:19:04.160Z,31.80
2023-07-11T13:21:07.607Z,27.40
2023-07-11T13:23:03.747Z,27.80
2023-07-11T13:24:04.337Z,35.10
2023-07-11T13:25:04.000Z,34.40
2023-07-11T13:26:03.640Z,28.50
2023-07-11T13:27:04.224Z,27.60
2023-07-11T13:28:06.458Z,35.90
2023-07-11T13:29:06.606Z,28.70
2023-07-11T13:31:09.559Z,35.30
2023-07-11T13:33:04.173Z,35.00
2023-07-11T13:34:03.851Z,35.10
2023-07-11T13:35:04.463Z,34.50
2023-07-11T13:36:08.457Z,33.90
2023-07-11T13:38:04.068Z,34.70
2023-07-11T13:39:03.631Z,34.50
2023-07-11T13:40:04.369Z,35.30
2023-07-11T13:41:07.084Z,30.70
2023-07-11T13:43:12.073Z,26.80
2023-07-11T13:44:03.592Z,26.10
2023-07-11T13:45:06.760Z,25.70
2023-07-11T13:47:06.413Z,25.90
2023-07-11T13:49:03.628Z,26.00
2023-07-11T13:50:04.487Z,26.80
2023-07-11T13:51:04.493Z,35.90
2023-07-11T13:52:04.461Z,35.90
2023-07-11T13:53:04.169Z,31.30
2023-07-11T13:54:03.827Z,29.10
2023-07-11T13:55:06.946Z,34.80
2023-07-11T13:56:06.958Z,33.70
2023-07-11T13:57:06.097Z,28.30
2023-07-11T13:59:05.622Z,26.80
2023-07-11T14:00:14.465Z,25.80
2023-07-11T14:02:07.298Z,33.80
2023-07-11T14:04:04.085Z,25.70
2023-07-11T14:05:04.028Z,27.50
2023-07-11T14:06:06.118Z,34.70
2023-07-11T14:07:06.141Z,34.80
2023-07-11T14:09:09.282Z,25.50
2023-07-11T14:11:06.778Z,25.30
2023-07-11T14:12:06.992Z,29.00
2023-07-11T14:14:04.232Z,25.00
2023-07-11T14:15:06.391Z,26.00
2023-07-11T14:17:09.559Z,29.60
2023-07-11T14:19:04.214Z,27.90
2023-07-11T14:20:03.869Z,25.80
2023-07-11T14:21:05.161Z,25.20
2023-07-11T14:23:03.488Z,25.20
2023-07-11T14:24:06.592Z,24.50
2023-07-11T14:25:06.568Z,24.50
2023-07-11T14:26:06.621Z,24.70
2023-07-11T14:28:03.672Z,24.90
2023-07-11T14:29:06.751Z,24.20
2023-07-11T14:30:06.948Z,24.40
2023-07-11T14:31:03.508Z,24.40
2023-07-11T14:32:04.168Z,24.30
2023-07-11T14:33:03.744Z,24.80
2023-07-11T14:34:04.389Z,25.80
2023-07-11T14:35:03.984Z,26.30
2023-07-11T14:37:06.873Z,33.50
2023-07-11T14:38:07.020Z,33.10
2023-07-11T14:39:06.133Z,34.00
2023-07-11T14:40:03.559Z,33.50
2023-07-11T14:41:09.935Z,28.90
2023-07-11T14:42:03.621Z,25.10
2023-07-11T14:43:06.824Z,24.40
2023-07-11T14:44:09.427Z,22.90
2023-07-11T14:46:03.671Z,24.20
2023-07-11T14:47:06.472Z,25.90
2023-07-11T14:49:06.676Z,33.40
2023-07-11T14:50:09.284Z,24.50
2023-07-11T14:51:03.909Z,24.60
2023-07-11T14:52:03.639Z,24.70
2023-07-11T14:53:04.364Z,25.30
2023-07-11T14:54:09.140Z,23.00
2023-07-11T14:57:29.889Z,24.10
2023-07-11T14:59:06.643Z,23.50
2023-07-11T15:00:09.149Z,23.60
2023-07-11T15:01:06.777Z,24.20
2023-07-11T15:02:04.398Z,24.00
2023-07-11T15:03:04.146Z,24.30
2023-07-11T15:06:58.365Z,33.50
2023-07-11T15:09:57.041Z,33.30
2023-07-11T15:10:07.403Z,25.10
2023-07-11T15:11:05.426Z,24.30
2023-07-11T15:14:39.112Z,25.60
2023-07-11T15:16:13.864Z,24.60
2023-07-11T15:18:04.228Z,34.40
2023-07-11T15:19:03.831Z,34.50
2023-07-11T15:20:04.466Z,34.70
2023-07-11T15:21:04.248Z,35.40
2023-07-11T15:22:06.671Z,27.50
2023-07-11T15:23:06.694Z,35.00
2023-07-11T15:24:04.212Z,34.90
2023-07-11T15:25:03.902Z,30.50
2023-07-11T15:27:04.245Z,27.40
2023-07-11T15:28:06.411Z,27.30
2023-07-11T15:29:06.467Z,27.30
2023-07-11T15:31:03.653Z,24.30
2023-07-11T15:32:04.258Z,23.90
2023-07-11T15:33:06.501Z,23.40
2023-07-11T15:34:04.073Z,23.20
2023-07-11T15:35:05.424Z,23.80
2023-07-11T15:37:04.276Z,24.50
2023-07-11T15:38:03.876Z,24.40
2023-07-11T15:39:03.575Z,24.70
2023-07-11T15:40:06.793Z,26.10
2023-07-11T15:41:04.267Z,25.90
2023-07-11T15:42:06.481Z,25.40
2023-07-11T15:43:09.007Z,25.90
2023-07-11T15:44:06.093Z,24.90
2023-07-11T15:45:03.608Z,23.90
2023-07-11T15:46:07.354Z,24.90
2023-07-11T15:47:04.049Z,24.20
2023-07-11T15:48:03.871Z,24.60
2023-07-11T15:49:08.567Z,25.00
2023-07-11T15:50:09.135Z,24.40
2023-07-11T15:51:03.685Z,25.10
2023-07-11T15:52:06.858Z,25.00
2023-07-11T15:53:09.408Z,24.70
2023-07-11T15:54:03.836Z,25.00
2023-07-11T15:55:04.566Z,24.80
2023-07-11T15:56:04.414Z,24.50
2023-07-11T15:57:06.527Z,24.30
2023-07-11T15:58:09.090Z,24.80
2023-07-11T16:00:04.246Z,25.10
2023-07-11T16:01:03.813Z,25.40
2023-07-11T16:02:04.581Z,25.50
2023-07-11T16:03:04.503Z,25.70
2023-07-11T16:04:04.317Z,25.40
2023-07-11T16:05:06.529Z,24.70
2023-07-11T16:06:07.068Z,25.00
2023-07-11T16:08:04.098Z,24.50
2023-07-11T16:10:03.475Z,24.40
2023-07-11T16:11:04.397Z,24.70
2023-07-11T16:12:04.374Z,25.10
2023-07-11T16:14:06.354Z,27.50
2023-07-11T16:16:03.515Z,24.60
2023-07-11T16:17:04.358Z,24.40
2023-07-11T16:18:04.811Z,25.30
2023-07-11T16:20:04.259Z,24.90
2023-07-11T16:21:03.894Z,25.00
2023-07-11T16:22:03.549Z,25.10
2023-07-11T16:23:04.212Z,24.50
2023-07-11T16:24:03.844Z,24.50
2023-07-11T16:25:03.621Z,24.70
2023-07-11T16:26:06.830Z,27.00